sensor_id;sensor_type;location;lat;lon;timestamp;pressure;altitude;pressure_sealevel;temperature;humidity
52185;BME280;38160;52.876;18.778;2022-12-18T00:00:44;102329.42;;;-3.86;93.89
52185;BME280;38160;52.876;18.778;2022-12-18T00:03:20;102327.64;;;-3.85;94.00
52185;BME280;38160;52.876;18.778;2022-12-18T00:05:52;102331.20;;;-3.86;93.95
52185;BME280;38160;52.876;18.778;2022-12-18T00:08:24;102336.95;;;-3.88;94.05
52185;BME280;38160;52.876;18.778;2022-12-18T00:11:03;102337.81;;;-3.88;94.19
52185;BME280;38160;52.876;18.778;2022-12-18T00:13:37;102340.43;;;-3.86;94.24
52185;BME280;38160;52.876;18.778;2022-12-18T00:16:11;102350.91;;;-3.83;94.35
52185;BME280;38160;52.876;18.778;2022-12-18T00:18:44;102353.45;;;-3.79;94.54
52185;BME280;38160;52.876;18.778;2022-12-18T00:21:18;102351.16;;;-3.73;94.69
52185;BME280;38160;52.876;18.778;2022-12-18T00:23:50;102349.69;;;-3.67;94.73
52185;BME280;38160;52.876;18.778;2022-12-18T00:26:24;102348.33;;;-3.64;94.50
52185;BME280;38160;52.876;18.778;2022-12-18T00:29:04;102356.63;;;-3.61;94.54
52185;BME280;38160;52.876;18.778;2022-12-18T00:31:41;102354.83;;;-3.59;94.55
52185;BME280;38160;52.876;18.778;2022-12-18T00:34:13;102360.92;;;-3.56;94.48
52185;BME280;38160;52.876;18.778;2022-12-18T00:36:47;102356.97;;;-3.56;94.53
52185;BME280;38160;52.876;18.778;2022-12-18T00:39:19;102359.05;;;-3.50;94.74
52185;BME280;38160;52.876;18.778;2022-12-18T00:41:51;102361.61;;;-3.47;94.67
52185;BME280;38160;52.876;18.778;2022-12-18T00:44:42;102366.87;;;-3.46;94.59
52185;BME280;38160;52.876;18.778;2022-12-18T00:47:13;102373.48;;;-3.47;94.55
52185;BME280;38160;52.876;18.778;2022-12-18T00:49:45;102373.94;;;-3.48;94.60
52185;BME280;38160;52.876;18.778;2022-12-18T00:52:17;102374.78;;;-3.46;94.72
52185;BME280;38160;52.876;18.778;2022-12-18T00:54:49;102386.18;;;-3.44;94.76
52185;BME280;38160;52.876;18.778;2022-12-18T00:57:20;102396.23;;;-3.40;94.68
52185;BME280;38160;52.876;18.778;2022-12-18T00:59:52;102389.64;;;-3.40;94.77
52185;BME280;38160;52.876;18.778;2022-12-18T01:02:24;102390.05;;;-3.39;94.73
52185;BME280;38160;52.876;18.778;2022-12-18T01:04:56;102391.74;;;-3.37;94.65
52185;BME280;38160;52.876;18.778;2022-12-18T01:07:27;102399.20;;;-3.36;94.62
52185;BME280;38160;52.876;18.778;2022-12-18T01:09:59;102399.26;;;-3.38;94.57
52185;BME280;38160;52.876;18.778;2022-12-18T01:12:31;102397.94;;;-3.38;94.78
52185;BME280;38160;52.876;18.778;2022-12-18T01:15:05;102405.86;;;-3.38;94.78
52185;BME280;38160;52.876;18.778;2022-12-18T01:17:37;102409.81;;;-3.38;94.71
52185;BME280;38160;52.876;18.778;2022-12-18T01:20:11;102415.98;;;-3.39;94.75
52185;BME280;38160;52.876;18.778;2022-12-18T01:22:43;102422.13;;;-3.38;94.62
52185;BME280;38160;52.876;18.778;2022-12-18T01:25:14;102422.20;;;-3.41;94.76
52185;BME280;38160;52.876;18.778;2022-12-18T01:27:47;102423.11;;;-3.42;94.66
52185;BME280;38160;52.876;18.778;2022-12-18T01:30:19;102426.18;;;-3.43;94.78
52185;BME280;38160;52.876;18.778;2022-12-18T01:32:51;102427.09;;;-3.44;94.80
52185;BME280;38160;52.876;18.778;2022-12-18T01:35:23;102423.61;;;-3.46;94.67
52185;BME280;38160;52.876;18.778;2022-12-18T01:37:55;102435.47;;;-3.44;94.87
52185;BME280;38160;52.876;18.778;2022-12-18T01:40:27;102433.23;;;-3.43;94.89
52185;BME280;38160;52.876;18.778;2022-12-18T01:42:59;102431.42;;;-3.40;94.95
52185;BME280;38160;52.876;18.778;2022-12-18T01:45:31;102439.70;;;-3.36;94.91
52185;BME280;38160;52.876;18.778;2022-12-18T01:48:06;102442.64;;;-3.30;94.81
52185;BME280;38160;52.876;18.778;2022-12-18T01:50:41;102439.97;;;-3.27;94.73
52185;BME280;38160;52.876;18.778;2022-12-18T01:53:20;102436.00;;;-3.27;94.54
52185;BME280;38160;52.876;18.778;2022-12-18T01:55:56;102433.39;;;-3.28;94.59
52185;BME280;38160;52.876;18.778;2022-12-18T01:58:56;102433.36;;;-3.27;94.73
52185;BME280;38160;52.876;18.778;2022-12-18T02:01:35;102444.35;;;-3.27;94.76
52185;BME280;38160;52.876;18.778;2022-12-18T02:04:26;102442.61;;;-3.27;94.63
52185;BME280;38160;52.876;18.778;2022-12-18T02:07:09;102444.83;;;-3.29;94.52
52185;BME280;38160;52.876;18.778;2022-12-18T02:10:00;102448.02;;;-3.35;94.39
52185;BME280;38160;52.876;18.778;2022-12-18T02:12:57;102452.92;;;-3.37;94.45
52185;BME280;38160;52.876;18.778;2022-12-18T02:16:08;102461.87;;;-3.44;94.22
52185;BME280;38160;52.876;18.778;2022-12-18T02:18:49;102472.53;;;-3.50;94.29
52185;BME280;38160;52.876;18.778;2022-12-18T02:21:51;102470.48;;;-3.59;94.23
52185;BME280;38160;52.876;18.778;2022-12-18T02:27:37;102480.35;;;-3.68;94.21
52185;BME280;38160;52.876;18.778;2022-12-18T02:30:11;102487.09;;;-3.78;94.08
52185;BME280;38160;52.876;18.778;2022-12-18T02:32:47;102488.06;;;-3.82;94.29
52185;BME280;38160;52.876;18.778;2022-12-18T02:35:26;102492.10;;;-3.86;94.37
52185;BME280;38160;52.876;18.778;2022-12-18T02:38:03;102491.66;;;-3.87;94.46
52185;BME280;38160;52.876;18.778;2022-12-18T02:40:38;102502.28;;;-3.90;94.42
52185;BME280;38160;52.876;18.778;2022-12-18T02:43:14;102497.48;;;-3.92;94.55
52185;BME280;38160;52.876;18.778;2022-12-18T02:45:49;102490.90;;;-3.94;94.70
52185;BME280;38160;52.876;18.778;2022-12-18T02:48:28;102503.17;;;-3.93;94.80
52185;BME280;38160;52.876;18.778;2022-12-18T02:51:13;102497.88;;;-3.91;94.68
52185;BME280;38160;52.876;18.778;2022-12-18T02:54:10;102497.87;;;-3.90;94.72
52185;BME280;38160;52.876;18.778;2022-12-18T02:56:50;102491.81;;;-3.95;94.54
52185;BME280;38160;52.876;18.778;2022-12-18T02:59:37;102503.73;;;-4.00;94.64
52185;BME280;38160;52.876;18.778;2022-12-18T03:02:25;102513.86;;;-4.01;94.75
52185;BME280;38160;52.876;18.778;2022-12-18T03:05:20;102514.35;;;-4.04;94.73
52185;BME280;38160;52.876;18.778;2022-12-18T03:08:06;102520.56;;;-4.08;94.67
52185;BME280;38160;52.876;18.778;2022-12-18T03:10:48;102517.13;;;-4.12;94.79
52185;BME280;38160;52.876;18.778;2022-12-18T03:13:43;102526.36;;;-4.12;94.97
52185;BME280;38160;52.876;18.778;2022-12-18T03:16:26;102532.04;;;-4.11;95.02
52185;BME280;38160;52.876;18.778;2022-12-18T03:19:01;102530.69;;;-4.08;95.10
52185;BME280;38160;52.876;18.778;2022-12-18T03:21:47;102539.02;;;-4.08;94.90
52185;BME280;38160;52.876;18.778;2022-12-18T03:24:23;102536.39;;;-4.08;94.99
52185;BME280;38160;52.876;18.778;2022-12-18T03:26:59;102531.95;;;-4.05;95.10
52185;BME280;38160;52.876;18.778;2022-12-18T03:29:38;102538.55;;;-4.05;94.85
52185;BME280;38160;52.876;18.778;2022-12-18T03:32:23;102536.75;;;-4.03;95.02
52185;BME280;38160;52.876;18.778;2022-12-18T03:34:55;102537.20;;;-4.02;94.88
52185;BME280;38160;52.876;18.778;2022-12-18T03:37:30;102539.75;;;-3.97;94.93
52185;BME280;38160;52.876;18.778;2022-12-18T03:40:03;102552.42;;;-3.94;94.86
52185;BME280;38160;52.876;18.778;2022-12-18T03:42:55;102548.98;;;-3.97;94.62
52185;BME280;38160;52.876;18.778;2022-12-18T03:45:34;102559.08;;;-3.97;94.94
52185;BME280;38160;52.876;18.778;2022-12-18T03:48:29;102565.59;;;-3.92;94.91
52185;BME280;38160;52.876;18.778;2022-12-18T03:51:11;102568.23;;;-3.92;94.70
52185;BME280;38160;52.876;18.778;2022-12-18T03:53:59;102571.70;;;-3.88;94.91
52185;BME280;38160;52.876;18.778;2022-12-18T03:56:44;102574.69;;;-3.84;94.79
52185;BME280;38160;52.876;18.778;2022-12-18T03:59:18;102577.77;;;-3.83;94.82
52185;BME280;38160;52.876;18.778;2022-12-18T04:01:52;102578.18;;;-3.82;94.81
52185;BME280;38160;52.876;18.778;2022-12-18T04:04:27;102579.02;;;-3.79;94.90
52185;BME280;38160;52.876;18.778;2022-12-18T04:07:02;102585.59;;;-3.77;94.84
52185;BME280;38160;52.876;18.778;2022-12-18T04:09:38;102591.73;;;-3.77;94.71
52185;BME280;38160;52.876;18.778;2022-12-18T04:12:12;102590.43;;;-3.78;94.59
52185;BME280;38160;52.876;18.778;2022-12-18T04:14:44;102590.41;;;-3.75;94.89
52185;BME280;38160;52.876;18.778;2022-12-18T04:17:16;102586.83;;;-3.71;94.87
52185;BME280;38160;52.876;18.778;2022-12-18T04:19:48;102592.96;;;-3.70;94.77
52185;BME280;38160;52.876;18.778;2022-12-18T04:22:20;102599.48;;;-3.66;94.85
52185;BME280;38160;52.876;18.778;2022-12-18T04:24:54;102598.95;;;-3.61;94.91
52185;BME280;38160;52.876;18.778;2022-12-18T04:27:27;102603.28;;;-3.57;94.70
52185;BME280;38160;52.876;18.778;2022-12-18T04:30:02;102607.23;;;-3.55;94.85
52185;BME280;38160;52.876;18.778;2022-12-18T04:32:35;102610.24;;;-3.51;94.97
52185;BME280;38160;52.876;18.778;2022-12-18T04:35:07;102619.41;;;-3.46;94.80
52185;BME280;38160;52.876;18.778;2022-12-18T04:37:42;102620.67;;;-3.45;94.76
52185;BME280;38160;52.876;18.778;2022-12-18T04:40:14;102628.09;;;-3.40;94.92
52185;BME280;38160;52.876;18.778;2022-12-18T04:42:48;102624.06;;;-3.37;95.02
52185;BME280;38160;52.876;18.778;2022-12-18T04:45:19;102623.52;;;-3.32;94.81
52185;BME280;38160;52.876;18.778;2022-12-18T04:47:53;102628.77;;;-3.28;94.73
52185;BME280;38160;52.876;18.778;2022-12-18T04:50:25;102630.11;;;-3.30;94.73
52185;BME280;38160;52.876;18.778;2022-12-18T04:52:57;102626.11;;;-3.27;94.84
52185;BME280;38160;52.876;18.778;2022-12-18T04:55:28;102628.70;;;-3.25;94.65
52185;BME280;38160;52.876;18.778;2022-12-18T04:58:00;102631.41;;;-3.28;94.52
52185;BME280;38160;52.876;18.778;2022-12-18T05:00:31;102634.51;;;-3.29;94.35
52185;BME280;38160;52.876;18.778;2022-12-18T05:03:03;102634.21;;;-3.38;93.97
52185;BME280;38160;52.876;18.778;2022-12-18T05:05:35;102630.34;;;-3.42;93.86
52185;BME280;38160;52.876;18.778;2022-12-18T05:08:06;102639.67;;;-3.48;93.51
52185;BME280;38160;52.876;18.778;2022-12-18T05:10:38;102637.14;;;-3.56;93.48
52185;BME280;38160;52.876;18.778;2022-12-18T05:13:10;102635.52;;;-3.65;93.47
52185;BME280;38160;52.876;18.778;2022-12-18T05:15:41;102639.94;;;-3.67;93.97
52185;BME280;38160;52.876;18.778;2022-12-18T05:18:13;102640.38;;;-3.66;94.00
52185;BME280;38160;52.876;18.778;2022-12-18T05:20:44;102638.62;;;-3.67;93.87
52185;BME280;38160;52.876;18.778;2022-12-18T05:23:16;102647.44;;;-3.66;93.75
52185;BME280;38160;52.876;18.778;2022-12-18T05:25:56;102645.69;;;-3.69;93.65
52185;BME280;38160;52.876;18.778;2022-12-18T05:28:31;102657.16;;;-3.70;93.64
52185;BME280;38160;52.876;18.778;2022-12-18T05:31:04;102654.59;;;-3.75;93.51
52185;BME280;38160;52.876;18.778;2022-12-18T05:33:37;102646.44;;;-3.88;93.05
52185;BME280;38160;52.876;18.778;2022-12-18T05:36:09;102655.81;;;-3.99;92.92
52185;BME280;38160;52.876;18.778;2022-12-18T05:38:42;102660.78;;;-4.09;92.66
52185;BME280;38160;52.876;18.778;2022-12-18T05:41:13;102675.36;;;-4.15;92.89
52185;BME280;38160;52.876;18.778;2022-12-18T05:43:45;102675.41;;;-4.18;93.30
52185;BME280;38160;52.876;18.778;2022-12-18T05:46:17;102684.19;;;-4.18;93.61
52185;BME280;38160;52.876;18.778;2022-12-18T05:48:50;102685.95;;;-4.17;93.73
52185;BME280;38160;52.876;18.778;2022-12-18T05:51:22;102677.25;;;-4.23;93.41
52185;BME280;38160;52.876;18.778;2022-12-18T05:53:53;102684.83;;;-4.33;93.04
52185;BME280;38160;52.876;18.778;2022-12-18T05:56:25;102691.09;;;-4.44;92.92
52185;BME280;38160;52.876;18.778;2022-12-18T05:58:57;102689.47;;;-4.54;92.86
52185;BME280;38160;52.876;18.778;2022-12-18T06:01:29;102687.36;;;-4.62;93.37
52185;BME280;38160;52.876;18.778;2022-12-18T06:04:00;102699.72;;;-4.67;93.46
52185;BME280;38160;52.876;18.778;2022-12-18T06:06:32;102699.78;;;-4.75;93.53
52185;BME280;38160;52.876;18.778;2022-12-18T06:09:04;102702.92;;;-4.82;93.54
52185;BME280;38160;52.876;18.778;2022-12-18T06:11:39;102704.33;;;-4.91;93.39
52185;BME280;38160;52.876;18.778;2022-12-18T06:14:11;102708.78;;;-4.99;93.51
52185;BME280;38160;52.876;18.778;2022-12-18T06:19:35;102718.99;;;-5.09;93.82
52185;BME280;38160;52.876;18.778;2022-12-18T06:22:07;102727.80;;;-5.16;93.78
52185;BME280;38160;52.876;18.778;2022-12-18T06:24:38;102737.92;;;-5.19;93.57
52185;BME280;38160;52.876;18.778;2022-12-18T06:27:10;102743.22;;;-5.24;93.58
52185;BME280;38160;52.876;18.778;2022-12-18T06:29:42;102751.12;;;-5.24;94.04
52185;BME280;38160;52.876;18.778;2022-12-18T06:32:14;102750.62;;;-5.19;94.23
52185;BME280;38160;52.876;18.778;2022-12-18T06:34:45;102754.58;;;-5.17;94.29
52185;BME280;38160;52.876;18.778;2022-12-18T06:37:17;102751.05;;;-5.16;94.54
52185;BME280;38160;52.876;18.778;2022-12-18T06:39:49;102751.91;;;-5.14;94.67
52185;BME280;38160;52.876;18.778;2022-12-18T06:42:21;102758.03;;;-5.12;94.79
52185;BME280;38160;52.876;18.778;2022-12-18T06:44:52;102763.75;;;-5.09;95.06
52185;BME280;38160;52.876;18.778;2022-12-18T06:47:24;102765.89;;;-5.04;95.31
52185;BME280;38160;52.876;18.778;2022-12-18T06:49:56;102771.98;;;-5.01;95.15
52185;BME280;38160;52.876;18.778;2022-12-18T06:52:28;102774.63;;;-5.01;95.15
52185;BME280;38160;52.876;18.778;2022-12-18T06:55:00;102782.93;;;-4.97;95.46
52185;BME280;38160;52.876;18.778;2022-12-18T06:57:31;102789.47;;;-4.92;95.61
52185;BME280;38160;52.876;18.778;2022-12-18T07:00:06;102799.96;;;-4.83;95.75
52185;BME280;38160;52.876;18.778;2022-12-18T07:02:38;102795.10;;;-4.79;95.60
52185;BME280;38160;52.876;18.778;2022-12-18T07:05:11;102801.19;;;-4.73;95.68
52185;BME280;38160;52.876;18.778;2022-12-18T07:07:42;102794.11;;;-4.67;95.73
52185;BME280;38160;52.876;18.778;2022-12-18T07:10:14;102801.92;;;-4.59;95.74
52185;BME280;38160;52.876;18.778;2022-12-18T07:12:46;102802.74;;;-4.52;95.73
52185;BME280;38160;52.876;18.778;2022-12-18T07:15:18;102808.41;;;-4.45;95.87
52185;BME280;38160;52.876;18.778;2022-12-18T07:17:50;102812.72;;;-4.38;95.67
52185;BME280;38160;52.876;18.778;2022-12-18T07:20:22;102813.53;;;-4.31;95.73
52185;BME280;38160;52.876;18.778;2022-12-18T07:22:54;102816.56;;;-4.26;95.61
52185;BME280;38160;52.876;18.778;2022-12-18T07:25:26;102828.80;;;-4.20;95.56
52185;BME280;38160;52.876;18.778;2022-12-18T07:27:57;102826.97;;;-4.13;95.64
52185;BME280;38160;52.876;18.778;2022-12-18T07:30:29;102832.63;;;-4.08;95.45
52185;BME280;38160;52.876;18.778;2022-12-18T07:33:01;102837.41;;;-4.04;95.18
52185;BME280;38160;52.876;18.778;2022-12-18T07:35:33;102840.95;;;-4.04;95.30
52185;BME280;38160;52.876;18.778;2022-12-18T07:38:05;102848.36;;;-4.00;95.40
52185;BME280;38160;52.876;18.778;2022-12-18T07:40:37;102847.44;;;-3.95;95.30
52185;BME280;38160;52.876;18.778;2022-12-18T07:43:10;102857.06;;;-3.90;95.34
52185;BME280;38160;52.876;18.778;2022-12-18T07:45:42;102864.93;;;-3.87;95.14
52185;BME280;38160;52.876;18.778;2022-12-18T07:48:19;102857.81;;;-3.81;95.37
52185;BME280;38160;52.876;18.778;2022-12-18T07:50:51;102855.12;;;-3.78;95.05
52185;BME280;38160;52.876;18.778;2022-12-18T07:53:23;102855.59;;;-3.78;95.00
52185;BME280;38160;52.876;18.778;2022-12-18T07:55:56;102854.26;;;-3.77;95.12
52185;BME280;38160;52.876;18.778;2022-12-18T07:58:29;102852.02;;;-3.72;95.18
52185;BME280;38160;52.876;18.778;2022-12-18T08:01:06;102854.64;;;-3.71;94.90
52185;BME280;38160;52.876;18.778;2022-12-18T08:03:39;102857.69;;;-3.68;94.84
52185;BME280;38160;52.876;18.778;2022-12-18T08:06:11;102858.09;;;-3.66;94.96
52185;BME280;38160;52.876;18.778;2022-12-18T08:08:44;102859.75;;;-3.59;95.11
52185;BME280;38160;52.876;18.778;2022-12-18T08:11:16;102862.38;;;-3.56;94.76
52185;BME280;38160;52.876;18.778;2022-12-18T08:13:47;102868.48;;;-3.54;94.79
52185;BME280;38160;52.876;18.778;2022-12-18T08:16:19;102873.73;;;-3.49;94.79
52185;BME280;38160;52.876;18.778;2022-12-18T08:18:52;102873.69;;;-3.47;94.47
52185;BME280;38160;52.876;18.778;2022-12-18T08:21:27;102876.83;;;-3.51;94.20
52185;BME280;38160;52.876;18.778;2022-12-18T08:24:01;102877.31;;;-3.56;94.05
52185;BME280;38160;52.876;18.778;2022-12-18T08:26:33;102881.21;;;-3.52;94.56
52185;BME280;38160;52.876;18.778;2022-12-18T08:29:04;102891.70;;;-3.44;94.36
52185;BME280;38160;52.876;18.778;2022-12-18T08:31:36;102889.07;;;-3.47;93.95
52185;BME280;38160;52.876;18.778;2022-12-18T08:34:08;102895.72;;;-3.48;94.14
52185;BME280;38160;52.876;18.778;2022-12-18T08:36:40;102898.80;;;-3.49;94.16
52185;BME280;38160;52.876;18.778;2022-12-18T08:39:11;102903.56;;;-3.42;94.46
52185;BME280;38160;52.876;18.778;2022-12-18T08:41:43;102910.97;;;-3.37;94.47
52185;BME280;38160;52.876;18.778;2022-12-18T08:44:17;102915.73;;;-3.32;94.25
52185;BME280;38160;52.876;18.778;2022-12-18T08:47:07;102917.44;;;-3.26;94.47
52185;BME280;38160;52.876;18.778;2022-12-18T08:49:39;102920.48;;;-3.24;94.08
52185;BME280;38160;52.876;18.778;2022-12-18T08:52:11;102921.34;;;-3.22;93.98
52185;BME280;38160;52.876;18.778;2022-12-18T08:54:43;102921.33;;;-3.20;93.89
52185;BME280;38160;52.876;18.778;2022-12-18T08:57:14;102917.73;;;-3.16;93.85
52185;BME280;38160;52.876;18.778;2022-12-18T08:59:46;102928.74;;;-3.17;93.94
52185;BME280;38160;52.876;18.778;2022-12-18T09:02:19;102925.31;;;-3.23;93.61
52185;BME280;38160;52.876;18.778;2022-12-18T09:04:50;102947.23;;;-3.17;93.77
52185;BME280;38160;52.876;18.778;2022-12-18T09:07:22;102949.02;;;-3.19;93.79
52185;BME280;38160;52.876;18.778;2022-12-18T09:09:54;102942.00;;;-3.20;93.39
52185;BME280;38160;52.876;18.778;2022-12-18T09:12:26;102947.35;;;-3.26;93.50
52185;BME280;38160;52.876;18.778;2022-12-18T09:14:57;102943.86;;;-3.28;93.42
52185;BME280;38160;52.876;18.778;2022-12-18T09:17:29;102942.52;;;-3.25;93.65
52185;BME280;38160;52.876;18.778;2022-12-18T09:20:01;102949.52;;;-3.22;93.48
52185;BME280;38160;52.876;18.778;2022-12-18T09:22:32;102939.88;;;-3.25;93.42
52185;BME280;38160;52.876;18.778;2022-12-18T09:25:04;102933.27;;;-3.25;93.41
52185;BME280;38160;52.876;18.778;2022-12-18T09:27:38;102933.22;;;-3.22;93.49
52185;BME280;38160;52.876;18.778;2022-12-18T09:30:10;102937.52;;;-3.15;93.82
52185;BME280;38160;52.876;18.778;2022-12-18T09:32:42;102939.68;;;-3.09;93.49
52185;BME280;38160;52.876;18.778;2022-12-18T09:35:14;102940.04;;;-3.05;93.22
52185;BME280;38160;52.876;18.778;2022-12-18T09:40:36;102942.13;;;-2.94;92.97
52185;BME280;38160;52.876;18.778;2022-12-18T09:43:25;102947.03;;;-3.01;92.98
52185;BME280;38160;52.876;18.778;2022-12-18T09:46:09;102945.23;;;-2.96;93.18
52185;BME280;38160;52.876;18.778;2022-12-18T09:48:41;102942.72;;;-3.07;92.48
52185;BME280;38160;52.876;18.778;2022-12-18T09:51:19;102946.77;;;-3.13;92.91
52185;BME280;38160;52.876;18.778;2022-12-18T09:53:56;102947.56;;;-3.08;93.08
52185;BME280;38160;52.876;18.778;2022-12-18T09:56:35;102947.09;;;-3.06;93.02
52185;BME280;38160;52.876;18.778;2022-12-18T09:59:23;102945.30;;;-3.02;93.05
52185;BME280;38160;52.876;18.778;2022-12-18T10:02:17;102945.79;;;-3.07;92.71
52185;BME280;38160;52.876;18.778;2022-12-18T10:05:02;102949.72;;;-3.03;92.51
52185;BME280;38160;52.876;18.778;2022-12-18T10:10:39;102955.55;;;-3.13;92.24
52185;BME280;38160;52.876;18.778;2022-12-18T10:13:30;102947.75;;;-3.22;92.13
52185;BME280;38160;52.876;18.778;2022-12-18T10:16:23;102950.05;;;-3.29;92.47
52185;BME280;38160;52.876;18.778;2022-12-18T10:19:08;102941.75;;;-3.36;92.12
52185;BME280;38160;52.876;18.778;2022-12-18T10:22:09;102944.39;;;-3.36;92.48
52185;BME280;38160;52.876;18.778;2022-12-18T10:27:36;102941.40;;;-3.43;92.10
52185;BME280;38160;52.876;18.778;2022-12-18T10:30:13;102933.06;;;-3.44;92.09
52185;BME280;38160;52.876;18.778;2022-12-18T10:32:46;102930.84;;;-3.43;92.20
52185;BME280;38160;52.876;18.778;2022-12-18T10:35:24;102933.02;;;-3.43;92.36
52185;BME280;38160;52.876;18.778;2022-12-18T10:40:52;102930.03;;;-3.48;92.08
52185;BME280;38160;52.876;18.778;2022-12-18T10:43:34;102932.14;;;-3.40;92.27
52185;BME280;38160;52.876;18.778;2022-12-18T10:48:52;102938.42;;;-3.54;91.72
52185;BME280;38160;52.876;18.778;2022-12-18T10:51:30;102924.52;;;-3.66;91.67
52185;BME280;38160;52.876;18.778;2022-12-18T10:54:22;102930.55;;;-3.57;91.95
52185;BME280;38160;52.876;18.778;2022-12-18T10:57:13;102928.78;;;-3.56;91.83
52185;BME280;38160;52.876;18.778;2022-12-18T10:59:55;102926.70;;;-3.66;91.52
52185;BME280;38160;52.876;18.778;2022-12-18T11:02:35;102930.72;;;-3.70;91.41
52185;BME280;38160;52.876;18.778;2022-12-18T11:05:26;102938.59;;;-3.69;91.70
52185;BME280;38160;52.876;18.778;2022-12-18T11:08:00;102941.73;;;-3.71;91.67
52185;BME280;38160;52.876;18.778;2022-12-18T11:10:35;102935.14;;;-3.74;91.22
52185;BME280;38160;52.876;18.778;2022-12-18T11:13:18;102927.69;;;-3.76;91.67
52185;BME280;38160;52.876;18.778;2022-12-18T11:15:52;102930.66;;;-3.64;92.16
52185;BME280;38160;52.876;18.778;2022-12-18T11:18:31;102932.05;;;-3.72;91.17
52185;BME280;38160;52.876;18.778;2022-12-18T11:21:24;102934.73;;;-3.78;91.21
52185;BME280;38160;52.876;18.778;2022-12-18T11:23:56;102929.92;;;-3.80;91.22
52185;BME280;38160;52.876;18.778;2022-12-18T11:26:35;102935.19;;;-3.77;91.52
52185;BME280;38160;52.876;18.778;2022-12-18T11:29:10;102946.56;;;-3.74;91.70
52185;BME280;38160;52.876;18.778;2022-12-18T11:31:43;102957.98;;;-3.71;91.35
52185;BME280;38160;52.876;18.778;2022-12-18T11:34:22;102963.30;;;-3.76;91.51
52185;BME280;38160;52.876;18.778;2022-12-18T11:37:00;102969.13;;;-3.86;91.15
52185;BME280;38160;52.876;18.778;2022-12-18T11:39:43;102969.63;;;-3.94;91.48
52185;BME280;38160;52.876;18.778;2022-12-18T11:42:41;102962.64;;;-4.00;91.31
52185;BME280;38160;52.876;18.778;2022-12-18T11:45:27;102969.28;;;-4.04;91.31
52185;BME280;38160;52.876;18.778;2022-12-18T11:48:34;102976.77;;;-4.04;91.74
52185;BME280;38160;52.876;18.778;2022-12-18T11:51:14;102966.59;;;-4.00;91.89
52185;BME280;38160;52.876;18.778;2022-12-18T11:53:47;102971.00;;;-4.00;91.95
52185;BME280;38160;52.876;18.778;2022-12-18T11:56:30;102955.67;;;-4.07;91.43
52185;BME280;38160;52.876;18.778;2022-12-18T12:07:15;102982.83;;;-3.96;91.98
52185;BME280;38160;52.876;18.778;2022-12-18T12:10:12;102981.05;;;-3.92;91.82
52185;BME280;38160;52.876;18.778;2022-12-18T12:13:01;102994.28;;;-3.95;91.54
52185;BME280;38160;52.876;18.778;2022-12-18T12:18:50;102995.16;;;-3.98;91.94
52185;BME280;38160;52.876;18.778;2022-12-18T12:21:41;103000.83;;;-3.92;91.87
52185;BME280;38160;52.876;18.778;2022-12-18T12:24:29;102997.28;;;-3.88;91.71
52185;BME280;38160;52.876;18.778;2022-12-18T12:27:08;102996.79;;;-3.83;91.47
52185;BME280;38160;52.876;18.778;2022-12-18T12:30:00;103009.57;;;-3.85;91.42
52185;BME280;38160;52.876;18.778;2022-12-18T12:32:46;103013.53;;;-3.87;91.31
52185;BME280;38160;52.876;18.778;2022-12-18T12:38:13;103001.66;;;-3.87;91.56
52185;BME280;38160;52.876;18.778;2022-12-18T12:40:52;102996.02;;;-3.92;91.28
52185;BME280;38160;52.876;18.778;2022-12-18T12:43:43;102999.06;;;-3.91;91.49
52185;BME280;38160;52.876;18.778;2022-12-18T12:46:19;102996.92;;;-3.98;91.43
52185;BME280;38160;52.876;18.778;2022-12-18T12:48:58;102996.02;;;-3.92;91.35
52185;BME280;38160;52.876;18.778;2022-12-18T12:51:35;102996.42;;;-3.93;91.56
52185;BME280;38160;52.876;18.778;2022-12-18T12:54:21;102991.64;;;-3.97;91.10
52185;BME280;38160;52.876;18.778;2022-12-18T12:57:01;102983.32;;;-3.99;91.51
52185;BME280;38160;52.876;18.778;2022-12-18T13:02:59;102992.97;;;-4.00;91.48
52185;BME280;38160;52.876;18.778;2022-12-18T13:05:54;102990.74;;;-3.96;91.68
52185;BME280;38160;52.876;18.778;2022-12-18T13:08:56;102993.78;;;-3.88;91.76
52185;BME280;38160;52.876;18.778;2022-12-18T13:14:40;103003.47;;;-3.94;91.12
52185;BME280;38160;52.876;18.778;2022-12-18T13:17:27;103015.44;;;-4.04;91.06
52185;BME280;38160;52.876;18.778;2022-12-18T13:20:09;103028.20;;;-4.05;91.26
52185;BME280;38160;52.876;18.778;2022-12-18T13:22:47;103036.60;;;-4.10;91.32
52185;BME280;38160;52.876;18.778;2022-12-18T13:28:11;103038.41;;;-4.17;90.97
52185;BME280;38160;52.876;18.778;2022-12-18T13:30:50;103030.98;;;-4.25;91.29
52185;BME280;38160;52.876;18.778;2022-12-18T13:36:15;103050.80;;;-4.30;91.46
52185;BME280;38160;52.876;18.778;2022-12-18T13:44:40;103074.58;;;-4.44;91.20
52185;BME280;38160;52.876;18.778;2022-12-18T13:47:27;103080.77;;;-4.48;91.30
52185;BME280;38160;52.876;18.778;2022-12-18T13:50:22;103082.11;;;-4.57;90.91
52185;BME280;38160;52.876;18.778;2022-12-18T13:52:57;103091.37;;;-4.66;91.33
52185;BME280;38160;52.876;18.778;2022-12-18T13:55:30;103085.69;;;-4.70;90.65
52185;BME280;38160;52.876;18.778;2022-12-18T13:58:05;103081.33;;;-4.79;90.96
52185;BME280;38160;52.876;18.778;2022-12-18T14:00:42;103081.77;;;-4.81;91.37
52185;BME280;38160;52.876;18.778;2022-12-18T14:03:23;103089.25;;;-4.82;91.30
52185;BME280;38160;52.876;18.778;2022-12-18T14:06:03;103088.83;;;-4.86;91.21
52185;BME280;38160;52.876;18.778;2022-12-18T14:08:41;103080.94;;;-4.92;91.34
52185;BME280;38160;52.876;18.778;2022-12-18T14:11:19;103075.22;;;-4.92;91.52
52185;BME280;38160;52.876;18.778;2022-12-18T14:13:53;103071.73;;;-4.89;91.47
52185;BME280;38160;52.876;18.778;2022-12-18T14:16:25;103072.60;;;-4.87;91.48
52185;BME280;38160;52.876;18.778;2022-12-18T14:18:57;103061.64;;;-4.91;91.05
52185;BME280;38160;52.876;18.778;2022-12-18T14:21:33;103062.05;;;-4.92;91.34